Impacts TAF Board
For situational awareness. Not to be used for flight planning purposes.
IDs:

KSFO - San Francisco Intl, CA, US

Issued at 1129 UTC 21 Feb 2019
Updated at 1326 UTC 21 Feb 2019
Potential Impact None Slight Moderate High
Time<<22/02Z 22/03Z 22/04Z 22/05Z 22/06Z 22/07Z 22/08Z 22/09Z 22/10Z 22/11Z 22/12Z 22/13Z 22/14Z>>
Type PRVL PRVL PRVL PRVL PRVL PRVL PRVL PRVL PRVL PRVL PRVL PRVL PRVL
VIS >6 >6 >6 >6 >6 >6 >6 >6 >6 >6 >6 >6 >6
CIG -- -- -- -- -- -- -- -- -- -- -- -- --
Cover SKC SKC SKC SKC SKC SKC SKC SKC SKC SKC SKC SKC SKC
FltCat VFR VFR VFR VFR VFR VFR VFR VFR VFR VFR VFR VFR VFR
WX -- -- -- -- -- -- -- -- -- -- -- -- --
WDir 320 310 310 310 310 310 310 310 VRB VRB VRB VRB VRB
WSpd 15 9 9 9 9 9 9 9 5 5 5 5 5
WGst 24 -- -- -- -- -- -- -- -- -- -- -- --
Raw TAF
KSFO 211129Z 2112/2218 32008KT P6SM FEW040 SCT150
  FM211800 33012G20KT P6SM FEW050 FEW080 FEW150
  FM212100 32015G24KT P6SM SKC
  FM220300 31009KT P6SM SKC
  FM221000 VRB05KT P6SM SKC


METAR Board
Radar Display
Forecast Discussion
For situational awareness. Not to be used for flight planning purposes.